Time;durP1;ratioP1;P1;durP2;ratioP2;P2;SDS_P1;SDS_P2;PMS_P1;PMS_P2;Temp;Humidity;BMP_temperature;BMP_pressure;BME280_temperature;BME280_humidity;BME280_pressure;Samples;Min_cycle;Max_cycle;Signal;HPM_P1;HPM_P2
2022/05/02 00:01:17;;;;;;;8.00;5.90;;;;;;100834.52;;;;107253;1274;65711;-34
2022/05/02 00:03:47;;;;;;;8.60;6.30;;;;;;100832.60;;;;107238;1274;65682;-29
2022/05/02 00:06:14;;;;;;;8.80;6.30;;;;;;100832.42;;;;107239;1274;66752;-27
2022/05/02 00:08:44;;;;;;;9.60;6.90;;;;;;100834.83;;;;107261;1274;65670;-26
2022/05/02 00:11:14;;;;;;;8.10;6.40;;;;;;100835.42;;;;107238;1274;65659;-28
2022/05/02 00:13:41;;;;;;;8.00;6.20;;;;;;100834.13;;;;107166;1274;66867;-30
2022/05/02 00:16:09;;;;;;;9.00;6.40;;;;;;100831.52;;;;107252;1274;65550;-27
2022/05/02 00:18:36;;;;;;;8.70;6.50;;;;;;100830.30;;;;107217;1274;65688;-33
2022/05/02 00:21:06;;;;;;;8.50;6.30;;;;;;100833.23;;;;107218;1274;66372;-33
2022/05/02 00:23:33;;;;;;;9.50;6.50;;;;;;100831.16;;;;107271;1274;65580;-28
2022/05/02 00:26:03;;;;;;;8.50;6.40;;;;;;100830.57;;;;107222;1273;65685;-28
2022/05/02 00:28:30;;;;;;;9.10;7.10;;;;;;100828.40;;;;107241;1274;65690;-28
2022/05/02 00:31:01;;;;;;;9.10;6.30;;;;;;100825.58;;;;107252;1273;67133;-35
2022/05/02 00:33:31;;;;;;;9.80;6.50;;;;;;100823.42;;;;107291;1274;65682;-40
2022/05/02 00:36:01;;;;;;;8.20;6.20;;;;;;100826.98;;;;107268;1274;66612;-34
2022/05/02 00:38:29;;;;;;;8.30;6.10;;;;;;100828.45;;;;107293;1274;65668;-43
2022/05/02 00:40:56;;;;;;;10.30;6.20;;;;;;100828.70;;;;107268;1274;65555;-40
2022/05/02 00:43:27;;;;;;;8.70;6.60;;;;;;100827.55;;;;107243;1275;65778;-27
2022/05/02 00:45:57;;;;;;;10.00;6.90;;;;;;100825.74;;;;107241;1274;65784;-27
2022/05/02 00:48:24;;;;;;;7.80;6.40;;;;;;100828.16;;;;107241;1274;65643;-33
2022/05/02 00:50:55;;;;;;;9.40;7.10;;;;;;100826.92;;;;107208;1274;65688;-34
2022/05/02 00:53:24;;;;;;;8.10;6.50;;;;;;100825.41;;;;107252;1274;65738;-34
2022/05/02 00:55:51;;;;;;;9.40;6.60;;;;;;100822.48;;;;107256;1274;67001;-33
2022/05/02 00:58:22;;;;;;;7.70;6.40;;;;;;100824.91;;;;107220;1274;65694;-33
2022/05/02 01:00:50;;;;;;;10.40;7.00;;;;;;100824.60;;;;107253;1274;65669;-34
2022/05/02 01:03:20;;;;;;;8.70;6.40;;;;;;100828.80;;;;107245;1275;65630;-28
2022/05/02 01:08:35;;;;;;;8.90;6.70;;;;;;100829.53;;;;107268;1274;67152;-28
2022/05/02 01:11:05;;;;;;;9.10;6.40;;;;;;100825.04;;;;107240;1274;66712;-28
2022/05/02 01:13:48;;;;;;;8.20;6.40;;;;;;100825.55;;;;107256;1274;65675;-35
2022/05/02 01:16:25;;;;;;;9.00;6.60;;;;;;100822.11;;;;107269;1274;65581;-33
2022/05/02 01:18:58;;;;;;;8.60;6.00;;;;;;100820.84;;;;107274;1274;65577;-29
2022/05/02 01:21:28;;;;;;;;;;;;;;100822.47;;;;107296;1274;68349;-33
2022/05/02 01:24:01;;;;;;;7.80;6.70;;;;;;100818.77;;;;107250;1274;65579;-33
2022/05/02 01:26:32;;;;;;;9.60;6.40;;;;;;100820.17;;;;107260;1273;65642;-34
2022/05/02 01:29:03;;;;;;;8.80;6.50;;;;;;100819.38;;;;107254;1274;65597;-28
2022/05/02 01:31:30;;;;;;;8.10;6.50;;;;;;100816.21;;;;107249;1274;65617;-28
2022/05/02 01:33:57;;;;;;;7.40;6.20;;;;;;100820.63;;;;107240;1274;67418;-33
2022/05/02 01:36:28;;;;;;;9.80;7.20;;;;;;100821.29;;;;107256;1274;65585;-36
2022/05/02 01:38:55;;;;;;;7.60;6.20;;;;;;100821.06;;;;107243;1274;65574;-34
2022/05/02 01:41:26;;;;;;;8.20;6.30;;;;;;100820.51;;;;107259;1274;65666;-33
2022/05/02 01:43:56;;;;;;;8.80;6.40;;;;;;100821.27;;;;107250;1274;65548;-29
2022/05/02 01:46:24;;;;;;;9.00;6.70;;;;;;100816.23;;;;107274;1274;66842;-27
2022/05/02 01:48:51;;;;;;;9.40;6.30;;;;;;100818.23;;;;107222;1274;65558;-38
2022/05/02 01:51:18;;;;;;;9.90;7.20;;;;;;100816.77;;;;107250;1274;65592;-27
2022/05/02 01:53:48;;;;;;;8.40;7.20;;;;;;100817.27;;;;107226;1274;65701;-28
2022/05/02 01:56:15;;;;;;;9.20;7.20;;;;;;100816.91;;;;107250;1274;65780;-27
2022/05/02 01:58:45;;;;;;;9.60;6.70;;;;;;100817.35;;;;107262;1274;65772;-28
2022/05/02 02:01:12;;;;;;;7.60;6.20;;;;;;100820.98;;;;107175;1274;65701;-28
2022/05/02 02:03:43;;;;;;;8.70;7.00;;;;;;100824.85;;;;107231;1275;65608;-39
2022/05/02 02:06:10;;;;;;;8.60;6.60;;;;;;100825.26;;;;107230;1274;65699;-35
2022/05/02 02:08:40;;;;;;;8.70;6.80;;;;;;100825.16;;;;107245;1274;65570;-29
2022/05/02 02:11:11;;;;;;;8.00;5.90;;;;;;100826.73;;;;107266;1274;65880;-36
2022/05/02 02:13:39;;;;;;;8.30;6.30;;;;;;100827.56;;;;107200;1274;65579;-27
2022/05/02 02:16:13;;;;;;;7.80;6.40;;;;;;100828.71;;;;107253;1274;65769;-28
2022/05/02 02:18:41;;;;;;;8.40;6.40;;;;;;100826.35;;;;107245;1274;65570;-28
2022/05/02 02:21:11;;;;;;;8.60;6.60;;;;;;100825.29;;;;107238;1274;65691;-28
2022/05/02 02:23:39;;;;;;;8.60;6.50;;;;;;100822.98;;;;107181;1274;67261;-34
2022/05/02 02:26:10;;;;;;;8.80;6.50;;;;;;100821.28;;;;107215;1274;65560;-36
2022/05/02 02:28:38;;;;;;;8.60;6.60;;;;;;100826.20;;;;107267;1274;65791;-31
2022/05/02 02:31:06;;;;;;;9.00;6.50;;;;;;100826.19;;;;107221;1274;65695;-27
2022/05/02 02:33:33;;;;;;;8.80;6.90;;;;;;100827.69;;;;107271;1274;65595;-33
2022/05/02 02:36:04;;;;;;;7.60;6.30;;;;;;100828.42;;;;107234;1274;66947;-28
2022/05/02 02:38:35;;;;;;;8.60;7.10;;;;;;100826.42;;;;107252;1274;67228;-28
2022/05/02 02:41:02;;;;;;;9.30;7.20;;;;;;100823.96;;;;107262;1274;65557;-26
2022/05/02 02:43:32;;;;;;;8.20;6.10;;;;;;100823.56;;;;107239;1274;65566;-27
2022/05/02 02:45:59;;;;;;;10.50;7.10;;;;;;100819.92;;;;107285;1274;65547;-27
2022/05/02 02:48:26;;;;;;;8.90;7.10;;;;;;100819.05;;;;107229;1274;67152;-33
2022/05/02 02:50:54;;;;;;;9.00;6.70;;;;;;100816.86;;;;107252;1273;65727;-33
2022/05/02 02:53:21;;;;;;;9.30;6.90;;;;;;100816.77;;;;107230;1274;65570;-27
2022/05/02 02:55:51;;;;;;;8.80;7.00;;;;;;100820.34;;;;107211;1274;65719;-30
2022/05/02 02:58:21;;;;;;;8.30;6.60;;;;;;100820.95;;;;107268;1274;65573;-34
2022/05/02 03:00:52;;;;;;;8.20;6.30;;;;;;100820.59;;;;107257;1274;68183;-33
2022/05/02 03:03:20;;;;;;;8.50;6.50;;;;;;100823.45;;;;107287;1274;65576;-28
2022/05/02 03:06:01;;;;;;;8.10;6.50;;;;;;100822.45;;;;107265;1274;65662;-28
2022/05/02 03:08:32;;;;;;;8.40;6.70;;;;;;100825.17;;;;107220;1274;65627;-28
2022/05/02 03:11:04;;;;;;;8.60;6.80;;;;;;100826.38;;;;107262;1272;65582;-33
2022/05/02 03:13:31;;;;;;;9.00;6.40;;;;;;100826.23;;;;107248;1274;66649;-26
2022/05/02 03:15:58;;;;;;;8.00;7.20;;;;;;100829.73;;;;107262;1274;65707;-27
2022/05/02 03:18:26;;;;;;;9.10;7.10;;;;;;100830.70;;;;107236;1274;65675;-33
2022/05/02 03:20:56;;;;;;;8.20;6.70;;;;;;100831.31;;;;107238;1274;65707;-34
2022/05/02 03:23:26;;;;;;;9.00;7.10;;;;;;100832.25;;;;107270;1274;65721;-28
2022/05/02 03:25:57;;;;;;;8.90;6.90;;;;;;100829.10;;;;107163;1274;66740;-28
2022/05/02 03:28:28;;;;;;;10.40;7.30;;;;;;100827.73;;;;107261;1274;65521;-35
2022/05/02 03:30:55;;;;;;;8.10;6.60;;;;;;100826.30;;;;107239;1274;65588;-32
2022/05/02 03:33:25;;;;;;;9.20;7.10;;;;;;100824.48;;;;107247;1274;65742;-28
2022/05/02 03:35:53;;;;;;;9.90;6.90;;;;;;100820.92;;;;107249;1274;65681;-27
2022/05/02 03:38:23;;;;;;;8.50;6.50;;;;;;100824.54;;;;107256;1274;67079;-28
2022/05/02 03:40:53;;;;;;;9.00;7.10;;;;;;100826.01;;;;107258;1273;65675;-27
2022/05/02 03:43:21;;;;;;;9.30;6.80;;;;;;100824.50;;;;107252;1274;65694;-33
2022/05/02 03:45:48;;;;;;;8.60;6.90;;;;;;100826.87;;;;107254;1274;65544;-33
2022/05/02 03:48:16;;;;;;;7.70;6.20;;;;;;100828.02;;;;107282;1273;65713;-28
2022/05/02 03:50:46;;;;;;;8.90;6.20;;;;;;100829.83;;;;107251;1274;67406;-28
2022/05/02 03:53:18;;;;;;;7.60;6.40;;;;;;100831.63;;;;107207;1274;63104;-27
2022/05/02 03:55:45;;;;;;;8.50;7.20;;;;;;100827.67;;;;107248;1274;65606;-28
2022/05/02 03:58:13;;;;;;;10.20;6.80;;;;;;100828.34;;;;107231;1274;65717;-28
2022/05/02 04:00:44;;;;;;;8.90;7.00;;;;;;100828.52;;;;107272;1274;65579;-28
2022/05/02 04:03:15;;;;;;;7.90;6.20;;;;;;100826.98;;;;107245;1274;68076;-40
2022/05/02 04:05:42;;;;;;;8.70;6.70;;;;;;100830.56;;;;107255;1274;65592;-33
2022/05/02 04:08:13;;;;;;;8.40;6.70;;;;;;100829.64;;;;107304;1274;66392;-34
2022/05/02 04:10:41;;;;;;;7.90;6.50;;;;;;100830.38;;;;107253;1274;65787;-34
2022/05/02 04:13:09;;;;;;;8.70;7.10;;;;;;100829.00;;;;107260;1274;65733;-27
2022/05/02 04:15:40;;;;;;;10.00;6.90;;;;;;100831.09;;;;106984;1274;395807;-28
2022/05/02 04:18:08;;;;;;;7.60;6.30;;;;;;100832.74;;;;107229;1274;65701;-31
2022/05/02 04:20:35;;;;;;;9.00;6.60;;;;;;100833.07;;;;107243;1274;65643;-43
2022/05/02 04:23:03;;;;;;;8.20;6.20;;;;;;100836.63;;;;107222;1274;65689;-31
2022/05/02 04:25:33;;;;;;;8.40;6.60;;;;;;100838.98;;;;107256;1274;65575;-29
2022/05/02 04:28:01;;;;;;;7.80;6.40;;;;;;100840.67;;;;107255;1274;68159;-33
2022/05/02 04:30:28;;;;;;;8.80;6.60;;;;;;100844.41;;;;107237;1274;65643;-33
2022/05/02 04:32:58;;;;;;;9.00;6.60;;;;;;100844.37;;;;107265;1272;66760;-33
2022/05/02 04:35:28;;;;;;;8.40;6.30;;;;;;100844.06;;;;107234;1274;65542;-32
2022/05/02 04:37:57;;;;;;;8.20;6.60;;;;;;100845.45;;;;107274;1273;65690;-28
2022/05/02 04:40:30;;;;;;;7.60;6.50;;;;;;100843.92;;;;107283;1274;65736;-28
2022/05/02 04:42:58;;;;;;;8.90;6.70;;;;;;100845.63;;;;107260;1274;66002;-33
2022/05/02 04:45:25;;;;;;;9.20;6.70;;;;;;100841.63;;;;107234;1274;65436;-41
2022/05/02 04:47:57;;;;;;;8.00;6.50;;;;;;100841.95;;;;107307;1274;65560;-28
2022/05/02 04:50:24;;;;;;;8.10;6.30;;;;;;100841.08;;;;107265;1272;65583;-27
2022/05/02 04:52:51;;;;;;;8.60;6.70;;;;;;100839.20;;;;107247;1274;66890;-27
2022/05/02 04:55:21;;;;;;;8.20;6.50;;;;;;100838.05;;;;107243;1274;65554;-28
2022/05/02 04:57:49;;;;;;;9.00;6.80;;;;;;100838.39;;;;107260;1274;65665;-33
2022/05/02 05:00:20;;;;;;;8.10;6.20;;;;;;100836.39;;;;107253;1274;65666;-33
2022/05/02 05:02:50;;;;;;;8.30;7.00;;;;;;100832.29;;;;107291;1274;66096;-28
2022/05/02 05:05:20;;;;;;;8.10;6.50;;;;;;100834.09;;;;107247;1274;66046;-27
2022/05/02 05:07:48;;;;;;;7.80;6.20;;;;;;100832.86;;;;107243;1274;64813;-28
2022/05/02 05:10:16;;;;;;;8.10;6.40;;;;;;100834.04;;;;107253;1273;65582;-28
2022/05/02 05:13:07;;;;;;;8.20;6.70;;;;;;100832.92;;;;107295;1274;65665;-28
2022/05/02 05:19:02;;;;;;;9.40;6.70;;;;;;100827.11;;;;107242;1274;67159;-33
2022/05/02 05:21:48;;;;;;;8.10;6.70;;;;;;100822.45;;;;107244;1274;65564;-34
2022/05/02 05:24:56;;;;;;;9.10;6.40;;;;;;100821.96;;;;107251;1274;65576;-36
2022/05/02 05:27:45;;;;;;;7.80;6.50;;;;;;100822.50;;;;107256;1274;65579;-34
2022/05/02 05:30:18;;;;;;;7.90;5.80;;;;;;100822.31;;;;107256;1274;65642;-34
2022/05/02 05:33:14;;;;;;;8.30;6.40;;;;;;100820.23;;;;107268;1274;66694;-27
2022/05/02 05:36:22;;;;;;;7.80;6.30;;;;;;100818.30;;;;107256;1274;65577;-27
2022/05/02 05:39:04;;;;;;;7.80;6.10;;;;;;100817.14;;;;107269;1274;65669;-34
2022/05/02 05:42:29;;;;;;;7.50;6.10;;;;;;100819.08;;;;107271;1272;65718;-40
2022/05/02 05:45:15;;;;;;;8.70;6.20;;;;;;100820.29;;;;106994;1274;65601;-38
2022/05/02 05:48:00;;;;;;;8.60;6.70;;;;;;100819.66;;;;107265;1274;68132;-39
2022/05/02 05:50:32;;;;;;;7.40;6.00;;;;;;100816.61;;;;107238;1274;65785;-32
2022/05/02 05:53:34;;;;;;;7.10;5.90;;;;;;100818.51;;;;107248;1274;65685;-29
2022/05/02 05:56:06;;;;;;;7.90;6.70;;;;;;100815.06;;;;107247;1274;65790;-28
2022/05/02 05:59:08;;;;;;;7.80;6.50;;;;;;100819.94;;;;107182;1273;65809;-34
2022/05/02 06:02:08;;;;;;;7.50;6.20;;;;;;100817.78;;;;107241;1274;67122;-34
2022/05/02 06:04:39;;;;;;;7.90;6.10;;;;;;100817.90;;;;107253;1274;65677;-33
2022/05/02 06:07:07;;;;;;;9.60;5.70;;;;;;100818.27;;;;107258;1274;66230;-44
2022/05/02 06:09:38;;;;;;;9.30;6.20;;;;;;100814.58;;;;107202;1274;65570;-33
2022/05/02 06:12:14;;;;;;;8.80;6.50;;;;;;100814.45;;;;107217;1274;65685;-27
2022/05/02 06:20:23;;;;;;;7.60;5.90;;;;;;100802.47;;;;107298;1274;65561;-32
2022/05/02 06:22:51;;;;;;;8.90;5.90;;;;;;100805.38;;;;107237;1273;65581;-31
2022/05/02 06:25:23;;;;;;;10.70;6.20;;;;;;100804.41;;;;107258;1274;65592;-29
2022/05/02 06:27:52;;;;;;;9.40;5.90;;;;;;100804.28;;;;107273;1274;67310;-31
2022/05/02 06:30:19;;;;;;;8.60;5.90;;;;;;100803.67;;;;107266;1274;65583;-31
2022/05/02 06:32:47;;;;;;;9.00;5.90;;;;;;100803.20;;;;107224;1274;65658;-30
2022/05/02 06:35:18;;;;;;;7.70;5.70;;;;;;100805.86;;;;107265;1274;65744;-31
2022/05/02 06:38:01;;;;;;;11.10;6.20;;;;;;100806.87;;;;107266;1274;65859;-36
2022/05/02 06:40:45;;;;;;;7.40;5.80;;;;;;100809.03;;;;107296;1274;67093;-33
2022/05/02 06:43:36;;;;;;;9.70;6.00;;;;;;100807.23;;;;107279;1274;64406;-31
2022/05/02 06:46:20;;;;;;;8.30;5.30;;;;;;100804.55;;;;107240;1274;65677;-29
2022/05/02 06:48:56;;;;;;;8.00;5.40;;;;;;100804.41;;;;107231;1274;65580;-31
2022/05/02 06:51:39;;;;;;;7.80;5.30;;;;;;100800.34;;;;107275;1274;65665;-33
2022/05/02 06:54:29;;;;;;;9.70;5.60;;;;;;100801.33;;;;107297;1274;69573;-35
2022/05/02 06:57:33;;;;;;;7.40;4.70;;;;;;100799.99;;;;107244;1273;65714;-36
2022/05/02 07:00:14;;;;;;;9.40;5.10;;;;;;100797.80;;;;107220;1274;65569;-31
2022/05/02 07:03:28;;;;;;;7.40;4.90;;;;;;100794.03;;;;107269;1274;65729;-30
2022/05/02 07:06:06;;;;;;;;;;;;;;100795.02;;;;107284;1273;65653;-33
2022/05/02 07:08:48;;;;;;;7.40;5.50;;;;;;100795.11;;;;107295;1274;68196;-35
2022/05/02 07:11:20;;;;;;;7.60;4.80;;;;;;100792.72;;;;107233;1273;66005;-34
2022/05/02 07:14:13;;;;;;;6.80;4.60;;;;;;100791.88;;;;107239;1274;65545;-26
2022/05/02 07:16:51;;;;;;;10.40;4.80;;;;;;100790.96;;;;107237;1274;65579;-27
2022/05/02 07:19:39;;;;;;;8.10;4.60;;;;;;100788.20;;;;107260;1274;65815;-27
2022/05/02 07:22:09;;;;;;;6.90;4.50;;;;;;100790.55;;;;107279;1273;68316;-33
2022/05/02 07:25:10;;;;;;;7.10;4.30;;;;;;100793.31;;;;107252;1274;65638;-35
2022/05/02 07:28:17;;;;;;;7.40;4.90;;;;;;100797.00;;;;107295;1274;66272;-28
2022/05/02 07:30:48;;;;;;;7.80;4.20;;;;;;100798.17;;;;107247;1273;65732;-27
2022/05/02 07:33:16;;;;;;;6.30;4.10;;;;;;100799.67;;;;107240;1274;63050;-36
2022/05/02 07:35:47;;;;;;;7.10;4.20;;;;;;100801.81;;;;107264;1274;68477;-37
2022/05/02 07:38:18;;;;;;;6.90;4.00;;;;;;100801.61;;;;107261;1274;65573;-27
2022/05/02 07:41:22;;;;;;;6.00;4.30;;;;;;100805.01;;;;107280;1274;65409;-27
2022/05/02 07:43:37;;;;;;;6.60;4.30;;;;;;100804.66;;;;107231;1274;65672;-30
2022/05/02 07:46:05;;;;;;;6.60;3.70;;;;;;100802.19;;;;107248;1274;65770;-27
2022/05/02 07:48:39;;;;;;;6.70;3.90;;;;;;100801.36;;;;107219;1274;65689;-35
2022/05/02 07:51:10;;;;;;;5.10;3.70;;;;;;100798.35;;;;107261;1274;65564;-35
2022/05/02 07:53:41;;;;;;;9.00;4.10;;;;;;100795.02;;;;107179;1274;66851;-26
2022/05/02 07:56:13;;;;;;;5.80;3.70;;;;;;100792.17;;;;107264;1274;65793;-26
2022/05/02 07:58:44;;;;;;;5.50;3.70;;;;;;100787.24;;;;107256;1274;65692;-28
2022/05/02 08:01:18;;;;;;;6.50;3.80;;;;;;100791.17;;;;107255;1274;68531;-27
2022/05/02 08:03:46;;;;;;;6.40;4.70;;;;;;100790.83;;;;107100;1274;65701;-32
2022/05/02 08:06:44;;;;;;;6.10;3.60;;;;;;100790.25;;;;107259;1274;65570;-32
2022/05/02 08:10:15;;;;;;;6.20;3.90;;;;;;100790.78;;;;107239;1274;65685;-32
2022/05/02 08:13:32;;;;;;;5.70;3.80;;;;;;100786.13;;;;107194;1274;65691;-27
2022/05/02 08:16:05;;;;;;;6.80;3.90;;;;;;100783.56;;;;106889;1279;66992;-27
2022/05/02 08:18:42;;;;;;;;;;;;;;100783.85;;;;107294;1273;65563;-30
2022/05/02 08:21:26;;;;;;;7.90;4.00;;;;;;100781.09;;;;107253;1274;65605;-28
2022/05/02 08:27:58;;;;;;;7.00;3.60;;;;;;100782.27;;;;107262;1274;65412;-27
2022/05/02 08:30:34;;;;;;;6.10;3.50;;;;;;100781.38;;;;107247;1273;66868;-25
2022/05/02 08:33:15;;;;;;;5.80;4.00;;;;;;100779.89;;;;107280;1274;65677;-26
2022/05/02 08:36:05;;;;;;;6.80;4.10;;;;;;100779.03;;;;107230;1274;65755;-39
2022/05/02 08:38:55;;;;;;;6.10;4.40;;;;;;100778.86;;;;107228;1274;65653;-38
2022/05/02 08:41:33;;;;;;;6.30;4.20;;;;;;100775.58;;;;107275;1274;65677;-44
2022/05/02 08:44:20;;;;;;;6.00;4.30;;;;;;100770.06;;;;107276;1274;66937;-27
2022/05/02 08:47:15;;;;;;;7.90;4.40;;;;;;100769.06;;;;107232;1274;65688;-33
2022/05/02 08:50:16;;;;;;;5.90;4.30;;;;;;100765.89;;;;107287;1274;66349;-37
2022/05/02 08:53:05;;;;;;;6.30;4.70;;;;;;100759.86;;;;107257;1274;65795;-35
2022/05/02 08:56:16;;;;;;;7.30;4.00;;;;;;100756.27;;;;107273;1274;65573;-31
2022/05/02 08:58:59;;;;;;;7.10;3.60;;;;;;100753.63;;;;107245;1274;67740;-33
2022/05/02 09:02:01;;;;;;;7.00;4.30;;;;;;100745.30;;;;107225;1274;65700;-29
2022/05/02 09:05:10;;;;;;;5.70;4.10;;;;;;100744.23;;;;107245;1274;65573;-32
2022/05/02 09:08:28;;;;;;;6.20;3.50;;;;;;100739.28;;;;107193;1274;65620;-29
2022/05/02 09:11:10;;;;;;;6.00;4.10;;;;;;100737.66;;;;107116;1274;65804;-27
2022/05/02 09:14:20;;;;;;;6.30;3.80;;;;;;100733.77;;;;107224;1274;68676;-35
2022/05/02 09:17:31;;;;;;;6.10;3.80;;;;;;100734.19;;;;107130;1274;65585;-27
2022/05/02 09:20:22;;;;;;;5.40;3.80;;;;;;100730.51;;;;107240;1274;66217;-29
2022/05/02 09:23:11;;;;;;;6.50;4.40;;;;;;100729.69;;;;107269;1274;65559;-28
2022/05/02 09:26:06;;;;;;;6.50;3.70;;;;;;100728.85;;;;107250;1273;65583;-28
2022/05/02 09:29:22;;;;;;;5.00;3.60;;;;;;100729.16;;;;107265;1272;68140;-31
2022/05/02 09:32:16;;;;;;;6.00;4.00;;;;;;100724.76;;;;107225;1274;65542;-28
2022/05/02 09:34:50;;;;;;;;;;;;;;100719.58;;;;107258;1274;65592;-25
2022/05/02 09:37:38;;;;;;;5.20;3.50;;;;;;100717.27;;;;107261;1274;65735;-32
2022/05/02 09:40:12;;;;;;;5.50;3.60;;;;;;100714.42;;;;107278;1274;65761;-33
2022/05/02 09:43:06;;;;;;;6.00;3.60;;;;;;100713.09;;;;107234;1274;68189;-38
2022/05/02 09:52:11;;;;;;;6.40;4.20;;;;;;100704.41;;;;107204;1272;65720;-35
2022/05/02 09:58:38;;;;;;;6.90;3.60;;;;;;100695.35;;;;107283;1274;68042;-34
2022/05/02 10:01:17;;;;;;;5.60;3.60;;;;;;100692.67;;;;107085;1274;65658;-35
2022/05/02 10:04:03;;;;;;;6.20;4.10;;;;;;100694.32;;;;107227;1274;65678;-40
2022/05/02 10:06:50;;;;;;;6.40;3.80;;;;;;100688.66;;;;107229;1274;65713;-31
2022/05/02 10:09:53;;;;;;;6.10;3.70;;;;;;100687.39;;;;107257;1274;66032;-35
2022/05/02 10:12:46;;;;;;;7.10;3.80;;;;;;100687.48;;;;107240;1274;67516;-34
2022/05/02 10:15:45;;;;;;;6.60;4.00;;;;;;100683.33;;;;107228;1274;65608;-34
2022/05/02 10:18:16;;;;;;;7.90;3.90;;;;;;100683.09;;;;107230;1274;65566;-29
2022/05/02 10:21:23;;;;;;;6.80;3.80;;;;;;100679.48;;;;107251;1274;65676;-28
2022/05/02 10:24:32;;;;;;;6.20;4.00;;;;;;100670.65;;;;107296;1274;65672;-28
2022/05/02 10:27:28;;;;;;;5.80;3.70;;;;;;100671.77;;;;107276;1273;67931;-28
2022/05/02 10:30:13;;;;;;;6.40;3.60;;;;;;100667.55;;;;107223;1274;65811;-34
2022/05/02 10:33:03;;;;;;;5.40;3.50;;;;;;100667.89;;;;107256;1273;65421;-27
2022/05/02 10:35:32;;;;;;;5.40;3.90;;;;;;100663.27;;;;107225;1274;65669;-27
2022/05/02 10:38:04;;;;;;;8.70;4.10;;;;;;100663.01;;;;107290;1274;65761;-33
2022/05/02 10:40:43;;;;;;;6.40;3.40;;;;;;100661.77;;;;107298;1274;68452;-41
2022/05/02 10:43:26;;;;;;;5.60;3.90;;;;;;100657.22;;;;107210;1274;65854;-33
2022/05/02 10:45:54;;;;;;;6.00;3.30;;;;;;100653.02;;;;107216;1274;65587;-31
2022/05/02 10:48:39;;;;;;;6.40;3.60;;;;;;100645.96;;;;107265;1274;65730;-33
2022/05/02 10:51:47;;;;;;;4.90;3.50;;;;;;100639.61;;;;107228;1274;65670;-35
2022/05/02 10:54:41;;;;;;;5.70;4.00;;;;;;100637.42;;;;107255;1274;68218;-27
2022/05/02 10:57:24;;;;;;;6.60;3.90;;;;;;100636.61;;;;107237;1274;65528;-27
2022/05/02 10:59:53;;;;;;;5.30;3.80;;;;;;100636.98;;;;107241;1274;65691;-31
2022/05/02 11:02:58;;;;;;;5.80;3.80;;;;;;100637.60;;;;107275;1274;65572;-27
2022/05/02 11:05:36;;;;;;;5.80;3.60;;;;;;100637.58;;;;107246;1274;66258;-27
2022/05/02 11:08:09;;;;;;;6.20;3.60;;;;;;100636.77;;;;107271;1274;68534;-27
2022/05/02 11:10:43;;;;;;;6.70;3.70;;;;;;100632.60;;;;107227;1274;65684;-27
2022/05/02 11:13:50;;;;;;;5.20;3.70;;;;;;100631.65;;;;107258;1272;65431;-27
2022/05/02 11:16:50;;;;;;;5.70;3.70;;;;;;100634.39;;;;107257;1274;65605;-28
2022/05/02 11:22:31;;;;;;;6.10;4.10;;;;;;100632.60;;;;107242;1274;66692;-32
2022/05/02 11:25:35;;;;;;;6.10;4.30;;;;;;100629.71;;;;107250;1273;65685;-33
2022/05/02 11:28:27;;;;;;;5.30;3.40;;;;;;100630.70;;;;107274;1274;65809;-28
2022/05/02 11:31:46;;;;;;;5.20;3.60;;;;;;100627.93;;;;107213;1274;65599;-28
2022/05/02 11:34:26;;;;;;;5.60;3.70;;;;;;100630.94;;;;106935;1280;65546;-34
2022/05/02 11:36:58;;;;;;;5.40;3.80;;;;;;100629.08;;;;107240;1274;67049;-28
2022/05/02 11:39:47;;;;;;;6.50;3.90;;;;;;100628.54;;;;107258;1274;66465;-28
2022/05/02 11:42:18;;;;;;;5.80;3.80;;;;;;100626.80;;;;107232;1274;66294;-34
2022/05/02 11:45:11;;;;;;;5.40;3.80;;;;;;100620.89;;;;107206;1274;65794;-37
2022/05/02 11:48:00;;;;;;;6.30;3.60;;;;;;100615.42;;;;107259;1274;65666;-34
2022/05/02 11:50:44;;;;;;;5.60;3.80;;;;;;100609.77;;;;107258;1274;68150;-40
2022/05/02 11:53:13;;;;;;;;;;;;;;100606.89;;;;107267;1274;65384;-28
2022/05/02 11:55:47;;;;;;;6.20;3.90;;;;;;100607.05;;;;107290;1274;65595;-28
2022/05/02 11:58:23;;;;;;;7.20;4.10;;;;;;100603.27;;;;107246;1274;65585;-33
2022/05/02 12:00:54;;;;;;;5.30;3.50;;;;;;100602.94;;;;107241;1274;65666;-34
2022/05/02 12:03:25;;;;;;;7.80;3.90;;;;;;100599.16;;;;107218;1274;67901;-30
2022/05/02 12:06:03;;;;;;;6.60;4.10;;;;;;100592.38;;;;107265;1274;65669;-30
2022/05/02 12:08:35;;;;;;;6.20;4.20;;;;;;100585.95;;;;107243;1274;64666;-34
2022/05/02 12:11:12;;;;;;;5.60;4.20;;;;;;100581.50;;;;107260;1274;65662;-28
2022/05/02 12:13:47;;;;;;;5.70;4.20;;;;;;100580.35;;;;107257;1274;65660;-34
2022/05/02 12:16:16;;;;;;;6.40;3.90;;;;;;100576.21;;;;104716;1274;3400443;-33
2022/05/02 12:18:51;;;;;;;6.50;3.90;;;;;;100571.22;;;;107322;1274;65390;-33
2022/05/02 12:21:46;;;;;;;5.40;3.90;;;;;;100563.62;;;;107257;1274;65678;-32
2022/05/02 12:24:27;;;;;;;5.90;3.90;;;;;;100559.52;;;;107140;1274;65704;-32
2022/05/02 12:26:58;;;;;;;6.10;4.00;;;;;;100560.89;;;;107266;1273;65764;-30
2022/05/02 12:29:27;;;;;;;5.00;3.80;;;;;;100556.30;;;;107233;1274;66404;-39
2022/05/02 12:31:58;;;;;;;5.90;3.80;;;;;;100550.63;;;;107237;1274;66133;-34
2022/05/02 12:34:39;;;;;;;5.20;4.10;;;;;;100545.95;;;;107258;1274;66211;-35
2022/05/02 12:37:30;;;;;;;5.40;3.80;;;;;;100537.70;;;;107237;1274;65653;-28
2022/05/02 12:40:11;;;;;;;5.50;3.60;;;;;;100529.65;;;;107222;1274;65822;-35
2022/05/02 12:42:45;;;;;;;5.30;3.70;;;;;;100528.35;;;;107274;1274;68054;-32
2022/05/02 12:45:17;;;;;;;5.50;3.80;;;;;;100525.50;;;;107225;1274;65697;-31
2022/05/02 12:47:50;;;;;;;5.80;3.60;;;;;;100520.61;;;;107269;1274;66603;-32
2022/05/02 12:50:21;;;;;;;4.50;3.20;;;;;;100517.45;;;;107235;1274;65685;-37
2022/05/02 12:52:55;;;;;;;5.00;3.40;;;;;;100513.84;;;;107227;1274;65544;-28
2022/05/02 12:55:36;;;;;;;6.10;3.80;;;;;;100511.91;;;;107277;1274;67966;-29
2022/05/02 13:00:55;;;;;;;5.50;3.80;;;;;;100513.86;;;;107248;1274;65599;-28
2022/05/02 13:03:27;;;;;;;6.10;4.00;;;;;;100511.30;;;;107175;1274;65645;-33
2022/05/02 13:06:06;;;;;;;5.10;3.80;;;;;;100511.75;;;;107183;1274;65762;-33
2022/05/02 13:08:41;;;;;;;5.00;3.60;;;;;;100510.39;;;;107245;1274;67020;-30
2022/05/02 13:11:21;;;;;;;6.60;3.60;;;;;;100506.67;;;;107242;1274;65556;-31
2022/05/02 13:13:54;;;;;;;5.00;3.40;;;;;;100503.30;;;;107170;1274;65786;-34
2022/05/02 13:16:30;;;;;;;4.80;3.40;;;;;;100505.95;;;;107261;1274;65580;-35
2022/05/02 13:19:06;;;;;;;5.60;3.60;;;;;;100503.87;;;;107292;1274;65591;-34
2022/05/02 13:21:33;;;;;;;5.70;4.00;;;;;;100504.09;;;;107259;1274;66793;-34
2022/05/02 13:24:17;;;;;;;4.70;3.60;;;;;;100503.28;;;;107257;1274;66054;-37
2022/05/02 13:27:35;;;;;;;5.20;3.50;;;;;;100498.43;;;;107253;1274;65550;-32
2022/05/02 13:30:09;;;;;;;5.30;3.30;;;;;;100499.30;;;;107270;1274;65815;-37
2022/05/02 13:32:51;;;;;;;5.10;3.40;;;;;;100495.52;;;;107258;1274;65704;-34
2022/05/02 13:35:26;;;;;;;5.10;3.40;;;;;;100492.93;;;;107279;1273;68400;-29
2022/05/02 13:38:14;;;;;;;5.80;3.80;;;;;;100488.41;;;;107227;1274;66085;-34
2022/05/02 13:41:29;;;;;;;5.50;3.70;;;;;;100483.02;;;;107262;1274;65663;-34
2022/05/02 13:44:33;;;;;;;5.50;3.60;;;;;;100482.83;;;;107248;1274;66219;-29
2022/05/02 13:47:10;;;;;;;5.30;3.80;;;;;;100478.48;;;;107301;1272;65566;-29
2022/05/02 13:50:06;;;;;;;5.50;3.60;;;;;;100474.13;;;;107276;1274;68530;-28
2022/05/02 13:52:59;;;;;;;5.50;3.40;;;;;;100474.45;;;;107125;1274;65786;-33
2022/05/02 13:55:45;;;;;;;5.40;3.50;;;;;;100473.40;;;;107211;1274;65710;-33
2022/05/02 13:58:33;;;;;;;4.80;3.30;;;;;;100467.44;;;;107220;1274;65577;-33
2022/05/02 14:01:39;;;;;;;5.40;3.30;;;;;;100468.98;;;;107257;1274;65685;-34
2022/05/02 14:04:28;;;;;;;5.60;4.00;;;;;;100465.00;;;;107260;1274;69136;-34
2022/05/02 14:07:09;;;;;;;6.00;5.00;;;;;;100461.54;;;;107267;1274;65688;-28
2022/05/02 14:09:46;;;;;;;8.40;5.90;;;;;;100465.55;;;;107263;1272;65564;-28
2022/05/02 14:12:23;;;;;;;6.90;5.50;;;;;;100464.65;;;;107172;1274;65429;-27
2022/05/02 14:15:07;;;;;;;7.30;5.30;;;;;;100459.26;;;;107246;1274;65579;-28
2022/05/02 14:17:43;;;;;;;7.50;5.60;;;;;;100460.55;;;;107177;1274;67856;-28